createdAt,value
2019-02-12T00:04:53.172Z,97841.22
2019-02-12T00:07:21.821Z,97853.89
2019-02-12T00:09:50.509Z,97851.55
2019-02-12T00:12:19.157Z,97853.28
2019-02-12T00:14:48.073Z,97852.27
2019-02-12T00:17:16.835Z,97857.23
2019-02-12T00:19:45.477Z,97860.14
2019-02-12T00:22:14.182Z,97879.53
2019-02-12T00:25:01.882Z,97875.02
2019-02-12T00:27:30.517Z,97866.22
2019-02-12T00:30:18.465Z,97873.13
2019-02-12T00:33:06.403Z,97877.77
2019-02-12T00:35:54.295Z,97875.95
2019-02-12T00:38:22.976Z,97874.34
2019-02-12T00:40:51.631Z,97868.88
2019-02-12T00:43:20.270Z,97867.80
2019-02-12T00:45:48.976Z,97871.50
2019-02-12T00:48:17.655Z,97871.24
2019-02-12T00:50:46.418Z,97875.41
2019-02-12T00:53:15.122Z,97875.41
2019-02-12T00:55:43.831Z,97887.63
2019-02-12T00:58:12.465Z,97884.13
2019-02-12T01:00:41.121Z,97886.50
2019-02-12T01:03:09.845Z,97886.80
2019-02-12T01:05:38.475Z,97892.63
2019-02-12T01:10:46.269Z,97895.18
2019-02-12T01:13:14.853Z,97902.63
2019-02-12T01:15:43.560Z,97906.06
2019-02-12T01:18:12.228Z,97913.98
2019-02-12T01:21:00.111Z,97924.94
2019-02-12T01:23:29.005Z,97928.54
2019-02-12T01:25:57.703Z,97930.00
2019-02-12T01:31:00.079Z,97937.77
2019-02-12T01:33:28.735Z,97940.38
2019-02-12T01:35:57.508Z,97937.86
2019-02-12T01:38:26.277Z,97949.42
2019-02-12T01:40:54.935Z,97950.98
2019-02-12T01:43:23.683Z,97949.06
2019-02-12T01:45:52.472Z,97947.50
2019-02-12T01:48:21.162Z,97938.17
2019-02-12T01:50:49.780Z,97938.38
2019-02-12T01:53:18.804Z,97942.02
2019-02-12T01:55:47.452Z,97940.09
2019-02-12T01:58:16.123Z,97942.16
2019-02-12T02:00:44.791Z,97937.86
2019-02-12T02:03:13.497Z,97931.02
2019-02-12T02:05:42.145Z,97934.11
2019-02-12T02:08:30.046Z,97937.31
2019-02-12T02:10:58.628Z,97941.66
2019-02-12T02:13:27.255Z,97943.03
2019-02-12T02:16:15.141Z,97941.20
2019-02-12T02:19:02.993Z,97938.41
2019-02-12T02:21:31.642Z,97936.83
2019-02-12T02:24:19.537Z,97940.44
2019-02-12T02:27:07.401Z,97942.00
2019-02-12T02:29:36.083Z,97941.96
2019-02-12T02:32:24.150Z,97946.27
2019-02-12T02:35:11.981Z,97953.97
2019-02-12T02:37:40.719Z,97966.03
2019-02-12T02:40:49.140Z,97965.22
2019-02-12T02:43:36.971Z,97965.48
2019-02-12T02:46:24.951Z,97975.31
2019-02-12T02:49:12.824Z,97969.23
2019-02-12T02:54:48.401Z,97979.45
2019-02-12T02:57:36.279Z,97980.97
2019-02-12T03:00:44.742Z,97985.88
2019-02-12T03:06:20.350Z,97995.26
2019-02-12T03:09:08.093Z,98000.38
2019-02-12T03:11:55.906Z,97995.26
2019-02-12T03:14:43.811Z,97998.30
2019-02-12T03:17:31.698Z,98004.23
2019-02-12T03:20:19.601Z,98015.08
2019-02-12T03:23:07.549Z,98013.41
2019-02-12T03:28:43.074Z,98014.42
2019-02-12T03:31:30.957Z,98016.55
2019-02-12T03:34:18.866Z,98027.87
2019-02-12T03:36:47.554Z,98030.15
2019-02-12T03:39:35.388Z,98043.43
2019-02-12T03:42:23.333Z,98044.51
2019-02-12T03:44:51.865Z,98045.62
2019-02-12T03:47:39.736Z,98054.95
2019-02-12T03:50:48.230Z,98062.21
2019-02-12T03:53:36.086Z,98057.53
2019-02-12T03:56:04.822Z,98057.98
2019-02-12T03:58:52.739Z,98066.63
2019-02-12T04:01:40.678Z,98067.90
2019-02-12T04:04:49.084Z,98064.09
2019-02-12T04:07:17.785Z,98066.82
2019-02-12T04:10:05.662Z,98059.06
2019-02-12T04:12:53.390Z,98067.55
2019-02-12T04:15:41.181Z,98058.79
2019-02-12T04:18:29.015Z,98065.13
2019-02-12T04:24:11.740Z,98059.80
2019-02-12T04:26:59.525Z,98063.95
2019-02-12T04:29:47.416Z,98070.93
2019-02-12T04:32:35.343Z,98066.73
2019-02-12T04:38:18.272Z,98065.66
2019-02-12T04:41:06.174Z,98056.14
2019-02-12T04:43:54.109Z,98045.61
2019-02-12T04:46:22.792Z,98049.71
2019-02-12T04:48:51.456Z,98045.42
2019-02-12T04:51:20.174Z,98053.98
2019-02-12T04:53:48.880Z,98063.34
2019-02-12T04:56:17.521Z,98062.20
2019-02-12T04:58:46.230Z,98057.47
2019-02-12T05:01:14.904Z,98058.42
2019-02-12T05:06:36.609Z,98060.00
2019-02-12T05:09:24.533Z,98062.20
2019-02-12T05:12:33.014Z,98062.97
2019-02-12T05:15:20.958Z,98060.62
2019-02-12T05:18:08.747Z,98053.48
2019-02-12T05:20:56.596Z,98057.75
2019-02-12T05:23:25.196Z,98074.38
2019-02-12T05:25:53.885Z,98077.73
2019-02-12T05:28:41.768Z,98082.74
2019-02-12T05:31:10.427Z,98078.33
2019-02-12T05:33:58.312Z,98088.95
2019-02-12T05:36:26.990Z,98091.80
2019-02-12T05:39:14.966Z,98099.52
2019-02-12T05:42:02.770Z,98096.86
2019-02-12T05:44:50.730Z,98103.64
2019-02-12T05:47:19.397Z,98100.48
2019-02-12T05:49:48.226Z,98099.24
2019-02-12T05:52:36.036Z,98101.46
2019-02-12T05:55:44.503Z,98096.09
2019-02-12T05:58:32.435Z,98099.70
2019-02-12T06:01:20.350Z,98099.09
2019-02-12T06:04:08.190Z,98098.62
2019-02-12T06:06:56.049Z,98103.43
2019-02-12T06:09:43.788Z,98105.97
2019-02-12T06:12:31.731Z,98092.96
2019-02-12T06:15:19.602Z,98101.64
2019-02-12T06:18:07.434Z,98098.50
2019-02-12T06:20:36.105Z,98093.92
2019-02-12T06:23:24.074Z,98084.25
2019-02-12T06:26:11.927Z,98096.14
2019-02-12T06:28:40.620Z,98096.76
2019-02-12T06:31:09.265Z,98106.09
2019-02-12T06:33:57.136Z,98108.63
2019-02-12T06:36:25.840Z,98104.83
2019-02-12T06:38:54.568Z,98112.11
2019-02-12T06:41:42.521Z,98101.83
2019-02-12T06:44:30.292Z,98111.34
2019-02-12T06:47:18.098Z,98110.36
2019-02-12T06:49:46.736Z,98109.42
2019-02-12T06:52:34.622Z,98101.18
2019-02-12T06:55:03.232Z,98107.67
2019-02-12T06:57:31.870Z,98108.81
2019-02-12T07:00:19.748Z,98111.19
2019-02-12T07:03:26.898Z,98111.83
2019-02-12T07:06:35.419Z,98112.96
2019-02-12T07:09:43.887Z,98117.02
2019-02-12T07:12:52.338Z,98119.25
2019-02-12T07:16:00.795Z,98124.64
2019-02-12T07:19:08.053Z,98127.00
2019-02-12T07:22:15.226Z,98125.73
2019-02-12T07:25:14.679Z,98127.63
2019-02-12T07:31:35.453Z,98120.78
2019-02-12T07:34:42.577Z,98138.05
2019-02-12T07:37:49.791Z,98145.31
2019-02-12T07:40:56.935Z,98161.61
2019-02-12T07:44:05.359Z,98179.32
2019-02-12T07:47:13.834Z,98181.37
2019-02-12T07:50:21.050Z,98177.10
2019-02-12T07:53:31.314Z,98179.58
2019-02-12T07:56:37.094Z,98191.25
2019-02-12T07:59:45.620Z,98195.34
2019-02-12T08:02:52.847Z,98197.90
2019-02-12T08:06:00.024Z,98197.33
2019-02-12T08:09:07.176Z,98212.18
2019-02-12T08:12:14.394Z,98216.89
2019-02-12T08:15:21.550Z,98218.80
2019-02-12T08:18:29.959Z,98229.08
2019-02-12T08:21:38.483Z,98227.66
2019-02-12T08:24:46.970Z,98229.33
2019-02-12T08:27:54.133Z,98218.06
2019-02-12T08:31:02.839Z,98230.31
2019-02-12T08:34:11.368Z,98229.52
2019-02-12T08:37:19.809Z,98231.86
2019-02-12T08:40:28.293Z,98237.12
2019-02-12T08:43:35.407Z,98241.70
2019-02-12T08:46:43.901Z,98244.23
2019-02-12T08:49:52.339Z,98250.09
2019-02-12T08:52:59.534Z,98251.66
2019-02-12T08:56:06.765Z,98251.35
2019-02-12T08:59:15.195Z,98251.05
2019-02-12T09:02:22.312Z,98257.45
2019-02-12T09:05:29.408Z,98257.88
2019-02-12T09:08:36.627Z,98259.80
2019-02-12T09:11:43.778Z,98263.17
2019-02-12T09:14:52.200Z,98261.00
2019-02-12T09:18:00.679Z,98264.19
2019-02-12T09:21:07.892Z,98265.92
2019-02-12T09:24:14.984Z,98267.11
2019-02-12T09:27:22.418Z,98265.98
2019-02-12T09:30:30.928Z,98270.01
2019-02-12T09:33:38.177Z,98270.80
2019-02-12T09:36:45.419Z,98260.84
2019-02-12T09:39:52.501Z,98258.69
2019-02-12T09:43:00.964Z,98266.39
2019-02-12T09:46:09.434Z,98265.04
2019-02-12T09:49:17.928Z,98265.48
2019-02-12T09:52:26.355Z,98267.67
2019-02-12T09:55:33.602Z,98272.08
2019-02-12T09:58:42.099Z,98265.23
2019-02-12T10:01:50.566Z,98271.02
2019-02-12T10:04:57.719Z,98272.73
2019-02-12T10:08:06.297Z,98280.62
2019-02-12T10:11:13.400Z,98285.61
2019-02-12T10:14:20.586Z,98293.37
2019-02-12T10:17:29.120Z,98289.70
2019-02-12T10:20:37.570Z,98297.55
2019-02-12T10:23:44.725Z,98300.97
2019-02-12T10:26:53.171Z,98299.92
2019-02-12T10:30:01.686Z,98301.75
2019-02-12T10:32:29.052Z,98299.23
2019-02-12T10:35:16.982Z,98304.13
2019-02-12T10:38:04.776Z,98307.70
2019-02-12T10:40:33.461Z,98315.95
2019-02-12T10:43:02.117Z,98311.91
2019-02-12T10:45:30.802Z,98313.42
2019-02-12T10:47:59.498Z,98308.60
2019-02-12T10:50:28.189Z,98308.10
2019-02-12T10:53:16.021Z,98304.15
2019-02-12T10:56:04.705Z,98301.45
2019-02-12T10:58:53.519Z,98303.88
2019-02-12T11:01:41.316Z,98307.09
2019-02-12T11:04:29.086Z,98308.44
2019-02-12T11:06:57.800Z,98308.00
2019-02-12T11:09:45.675Z,98313.76
2019-02-12T11:15:21.262Z,98300.84
2019-02-12T11:17:49.952Z,98295.14
2019-02-12T11:20:18.528Z,98302.32
2019-02-12T11:23:06.344Z,98299.52
2019-02-12T11:25:54.284Z,98295.45
2019-02-12T11:28:42.168Z,98297.36
2019-02-12T11:31:10.857Z,98304.94
2019-02-12T11:33:58.687Z,98308.15
2019-02-12T11:36:27.404Z,98307.05
2019-02-12T11:38:55.953Z,98305.86
2019-02-12T11:41:43.771Z,98303.52
2019-02-12T11:44:31.742Z,98307.56
2019-02-12T11:47:19.646Z,98318.70
2019-02-12T11:49:48.260Z,98325.73
2019-02-12T11:52:36.064Z,98330.03
2019-02-12T11:55:24.016Z,98334.06
2019-02-12T11:57:52.642Z,98328.33
2019-02-12T12:00:40.341Z,98334.31
2019-02-12T12:03:28.261Z,98331.32
2019-02-12T12:05:56.919Z,98332.93
2019-02-12T12:08:44.806Z,98337.61
2019-02-12T12:11:13.570Z,98337.30
2019-02-12T12:14:01.524Z,98342.70
2019-02-12T12:16:49.376Z,98342.11
2019-02-12T12:19:18.064Z,98342.63
2019-02-12T12:21:46.735Z,98343.08
2019-02-12T12:24:34.704Z,98339.10
2019-02-12T12:27:03.342Z,98341.31
2019-02-12T12:29:51.212Z,98341.64
2019-02-12T12:32:39.125Z,98337.20
2019-02-12T12:35:47.639Z,98333.30
2019-02-12T12:38:35.650Z,98344.49
2019-02-12T12:41:23.576Z,98345.13
2019-02-12T12:44:11.427Z,98337.36
2019-02-12T12:46:59.318Z,98337.61
2019-02-12T12:49:27.951Z,98335.94
2019-02-12T12:51:56.679Z,98332.20
2019-02-12T12:54:44.626Z,98336.38
2019-02-12T12:57:32.426Z,98334.00
2019-02-12T13:00:01.077Z,98324.72
2019-02-12T13:02:48.885Z,98328.23
2019-02-12T13:05:17.510Z,98325.80
2019-02-12T13:07:46.339Z,98327.80
2019-02-12T13:10:54.788Z,98333.39
2019-02-12T13:13:23.477Z,98326.23
2019-02-12T13:16:11.259Z,98326.05
2019-02-12T13:18:59.167Z,98334.78
2019-02-12T13:21:47.077Z,98334.31
2019-02-12T13:24:35.016Z,98327.45
2019-02-12T13:27:22.836Z,98328.36
2019-02-12T13:29:51.513Z,98330.55
2019-02-12T13:32:39.304Z,98337.78
2019-02-12T13:35:47.786Z,98336.07
2019-02-12T13:38:16.430Z,98336.50
2019-02-12T13:40:45.227Z,98329.64
2019-02-12T13:43:33.106Z,98333.26
2019-02-12T13:46:01.773Z,98330.50
2019-02-12T13:48:49.689Z,98337.13
2019-02-12T13:51:18.316Z,98349.67
2019-02-12T13:53:47.112Z,98340.88
2019-02-12T13:59:09.032Z,98330.30
2019-02-12T14:01:56.979Z,98332.56
2019-02-12T14:04:44.866Z,98332.28
2019-02-12T14:07:32.697Z,98326.80
2019-02-12T14:12:56.453Z,98344.02
2019-02-12T14:15:25.220Z,98339.48
2019-02-12T14:18:13.068Z,98351.02
2019-02-12T14:23:48.572Z,98352.23
2019-02-12T14:26:17.220Z,98349.24
2019-02-12T14:29:05.169Z,98345.53
2019-02-12T14:31:33.811Z,98356.16
2019-02-12T14:34:21.687Z,98354.11
2019-02-12T14:36:50.356Z,98350.70
2019-02-12T14:39:19.055Z,98358.72
2019-02-12T14:41:47.641Z,98361.80
2019-02-12T14:44:35.530Z,98352.29
2019-02-12T14:47:23.437Z,98356.47
2019-02-12T14:50:11.296Z,98356.48
2019-02-12T14:52:59.155Z,98350.95
2019-02-12T14:55:47.055Z,98352.70
2019-02-12T14:58:15.754Z,98347.25
2019-02-12T15:01:03.582Z,98356.89
2019-02-12T15:03:51.376Z,98350.95
2019-02-12T15:06:39.228Z,98349.30
2019-02-12T15:09:27.091Z,98341.23
2019-02-12T15:12:14.964Z,98341.66
2019-02-12T15:15:02.870Z,98341.48
2019-02-12T15:17:31.521Z,98341.23
2019-02-12T15:20:19.442Z,98346.48
2019-02-12T15:23:07.278Z,98344.91
2019-02-12T15:25:55.080Z,98351.19
2019-02-12T15:28:23.766Z,98350.31
2019-02-12T15:30:52.541Z,98352.91
2019-02-12T15:33:21.181Z,98350.83
2019-02-12T15:36:08.987Z,98357.57
2019-02-12T15:38:37.651Z,98357.06
2019-02-12T15:41:06.312Z,98353.59
2019-02-12T15:43:34.941Z,98359.58
2019-02-12T15:46:03.640Z,98363.33
2019-02-12T15:51:06.758Z,98365.29
2019-02-12T15:53:35.469Z,98364.57
2019-02-12T15:58:57.465Z,98367.92
2019-02-12T16:01:47.027Z,98369.95
2019-02-12T16:04:15.722Z,98371.36
2019-02-12T16:07:03.660Z,98372.34
2019-02-12T16:09:33.199Z,98363.51
2019-02-12T16:12:04.056Z,98364.64
2019-02-12T16:14:53.052Z,98366.05
2019-02-12T16:17:41.867Z,98373.33
2019-02-12T16:20:10.535Z,98378.65
2019-02-12T16:22:39.244Z,98381.94
2019-02-12T16:25:27.204Z,98380.02
2019-02-12T16:31:08.743Z,98389.39
2019-02-12T16:33:56.554Z,98388.12
2019-02-12T16:36:44.507Z,98395.45
2019-02-12T16:39:13.219Z,98398.37
2019-02-12T16:41:41.888Z,98409.19
2019-02-12T16:44:29.831Z,98409.05
2019-02-12T16:47:17.866Z,98412.05
2019-02-12T16:49:46.545Z,98420.77
2019-02-12T16:52:34.502Z,98418.56
2019-02-12T16:55:22.414Z,98423.35
2019-02-12T16:58:10.277Z,98428.14
2019-02-12T17:00:58.128Z,98434.49
2019-02-12T17:03:45.878Z,98443.50
2019-02-12T17:12:03.099Z,98455.56
2019-02-12T17:14:50.927Z,98457.95
2019-02-12T17:17:19.617Z,98462.58
2019-02-12T17:19:48.315Z,98463.69
2019-02-12T17:22:16.985Z,98469.89
2019-02-12T17:24:45.758Z,98470.86
2019-02-12T17:27:14.445Z,98476.25
2019-02-12T17:29:43.147Z,98471.55
2019-02-12T17:32:31.051Z,98483.31
2019-02-12T17:35:18.927Z,98484.08
2019-02-12T17:38:06.782Z,98488.39
2019-02-12T17:40:54.740Z,98487.47
2019-02-12T17:43:23.479Z,98484.11
2019-02-12T17:45:52.152Z,98491.74
2019-02-12T17:48:20.769Z,98494.09
2019-02-12T17:50:49.392Z,98491.94
2019-02-12T17:53:18.078Z,98496.21
2019-02-12T17:55:46.757Z,98504.16
2019-02-12T17:58:15.428Z,98497.17
2019-02-12T18:01:03.726Z,98503.22
2019-02-12T18:03:51.611Z,98492.59
2019-02-12T18:06:20.247Z,98504.34
2019-02-12T18:09:08.157Z,98501.80
2019-02-12T18:11:36.844Z,98497.80
2019-02-12T18:14:05.577Z,98507.84
2019-02-12T18:16:34.272Z,98507.04
2019-02-12T18:21:55.929Z,98512.77
2019-02-12T18:27:12.108Z,98508.34
2019-02-12T18:29:40.824Z,98513.30
2019-02-12T18:32:09.527Z,98508.53
2019-02-12T18:34:38.240Z,98515.50
2019-02-12T18:37:06.984Z,98512.65
2019-02-12T18:42:49.189Z,98516.65
2019-02-12T18:45:58.595Z,98508.99
2019-02-12T18:48:28.000Z,98511.88
2019-02-12T18:51:15.950Z,98511.38
2019-02-12T18:54:03.855Z,98508.84
2019-02-12T18:56:51.757Z,98512.84
2019-02-12T18:59:39.652Z,98515.84
2019-02-12T19:02:27.596Z,98513.12
2019-02-12T19:05:15.364Z,98525.36
2019-02-12T19:08:03.244Z,98519.01
2019-02-12T19:10:31.869Z,98519.66
2019-02-12T19:13:00.558Z,98521.77
2019-02-12T19:15:48.510Z,98528.11
2019-02-12T19:18:56.932Z,98523.03
2019-02-12T19:21:44.790Z,98527.65
2019-02-12T19:27:20.368Z,98530.53
2019-02-12T19:30:08.171Z,98535.61
2019-02-12T19:32:36.818Z,98536.26
2019-02-12T19:35:45.277Z,98542.92
2019-02-12T19:43:21.966Z,98545.13
2019-02-12T19:45:50.642Z,98537.53
2019-02-12T19:48:38.510Z,98541.99
2019-02-12T19:51:07.156Z,98543.08
2019-02-12T19:53:37.479Z,98551.53
2019-02-12T19:56:25.307Z,98552.33
2019-02-12T19:58:54.181Z,98555.80
2019-02-12T20:01:22.991Z,98561.04
2019-02-12T20:04:10.838Z,98562.81
2019-02-12T20:06:39.600Z,98558.98
2019-02-12T20:09:48.059Z,98559.17
2019-02-12T20:12:35.859Z,98557.90
2019-02-12T20:15:44.353Z,98559.00
2019-02-12T20:18:32.246Z,98555.96
2019-02-12T20:21:20.136Z,98561.23
2019-02-12T20:24:08.013Z,98565.98
2019-02-12T20:26:36.645Z,98565.98
2019-02-12T20:29:24.620Z,98562.80
2019-02-12T20:31:53.281Z,98560.44
2019-02-12T20:34:41.078Z,98561.73
2019-02-12T20:37:29.019Z,98561.41
2019-02-12T20:40:16.852Z,98556.33
2019-02-12T20:43:04.687Z,98557.60
2019-02-12T20:45:52.579Z,98555.22
2019-02-12T20:48:21.208Z,98560.14
2019-02-12T20:51:09.153Z,98552.84
2019-02-12T20:53:56.990Z,98546.33
2019-02-12T20:56:44.875Z,98550.16
2019-02-12T20:59:13.530Z,98552.05
2019-02-12T21:01:42.167Z,98554.44
2019-02-12T21:04:10.851Z,98555.23
2019-02-12T21:06:39.549Z,98550.64
2019-02-12T21:11:55.979Z,98562.84
2019-02-12T21:14:24.664Z,98563.80
2019-02-12T21:16:53.204Z,98560.96
2019-02-12T21:19:40.901Z,98566.19
2019-02-12T21:22:28.818Z,98564.44
2019-02-12T21:25:16.775Z,98560.95
2019-02-12T21:28:04.651Z,98562.55
2019-02-12T21:31:13.098Z,98567.17
2019-02-12T21:34:00.907Z,98563.02
2019-02-12T21:36:48.817Z,98569.23
2019-02-12T21:41:53.204Z,98568.42
2019-02-12T21:44:22.636Z,98569.38
2019-02-12T21:47:10.686Z,98579.23
2019-02-12T21:49:58.562Z,98576.67
2019-02-12T21:52:46.347Z,98572.88
2019-02-12T21:58:16.290Z,98585.27
2019-02-12T22:00:45.158Z,98584.78
2019-02-12T22:03:13.843Z,98590.83
2019-02-12T22:05:42.481Z,98586.69
2019-02-12T22:08:11.229Z,98582.89
2019-02-12T22:10:46.175Z,98587.48
2019-02-12T22:13:10.347Z,98587.33
2019-02-12T22:15:38.997Z,98581.62
2019-02-12T22:18:07.664Z,98581.30
2019-02-12T22:23:31.452Z,98575.58
2019-02-12T22:29:08.351Z,98568.76
2019-02-12T22:31:37.783Z,98568.11
2019-02-12T22:34:06.604Z,98560.52
2019-02-12T22:36:55.188Z,98565.91
2019-02-12T22:40:03.797Z,98572.56
2019-02-12T22:42:52.335Z,98570.80
2019-02-12T22:45:40.303Z,98575.75
2019-02-12T22:48:28.216Z,98579.06
2019-02-12T22:50:56.978Z,98579.23
2019-02-12T22:53:44.982Z,98585.25
2019-02-12T22:56:32.939Z,98578.25
2019-02-12T22:59:02.218Z,98574.13
2019-02-12T23:04:20.141Z,98567.95
2019-02-12T23:07:08.053Z,98564.64
2019-02-12T23:09:36.862Z,98576.54
2019-02-12T23:17:54.951Z,98560.66
2019-02-12T23:20:42.917Z,98561.45
2019-02-12T23:23:30.819Z,98564.64
2019-02-12T23:26:18.691Z,98561.33
2019-02-12T23:29:06.523Z,98557.83
2019-02-12T23:31:54.332Z,98558.13
2019-02-12T23:34:42.298Z,98554.19
2019-02-12T23:37:10.895Z,98548.96
2019-02-12T23:39:39.525Z,98549.73
2019-02-12T23:42:27.405Z,98543.42
2019-02-12T23:44:56.081Z,98541.20
2019-02-12T23:47:24.724Z,98540.86
2019-02-12T23:49:53.417Z,98532.64
2019-02-12T23:52:41.196Z,98529.60
2019-02-12T23:55:29.059Z,98541.52
2019-02-12T23:58:05.606Z,98544.81
